Time;durP1;ratioP1;P1;durP2;ratioP2;P2;SDS_P1;SDS_P2;PMS_P1;PMS_P2;Temp;Humidity;BMP_temperature;BMP_pressure;BME280_temperature;BME280_humidity;BME280_pressure;Samples;Min_cycle;Max_cycle;Signal;HPM_P1;HPM_P2
2021/12/25 00:01:19;;;;;;;0.63;0.30;;;;;;;;;;4994901;28;20186;-59
2021/12/25 00:03:46;;;;;;;1.20;0.52;;;;;;;;;;4994951;28;20166;-60
2021/12/25 00:06:12;;;;;;;0.77;0.30;;;;;;;;;;4994618;28;20274;-60
2021/12/25 00:08:38;;;;;;;0.73;0.50;;;;;;;;;;4994400;28;20241;-60
2021/12/25 00:11:05;;;;;;;0.50;0.22;;;;;;;;;;4994601;28;20174;-60
2021/12/25 00:13:31;;;;;;;0.50;0.30;;;;;;;;;;4994583;28;20175;-58
2021/12/25 00:15:57;;;;;;;2.60;0.50;;;;;;;;;;4994225;28;20174;-58
2021/12/25 00:18:23;;;;;;;0.65;0.30;;;;;;;;;;4994419;28;20175;-60
2021/12/25 00:20:50;;;;;;;1.23;0.45;;;;;;;;;;4994437;28;20175;-60
2021/12/25 00:23:16;;;;;;;2.00;0.40;;;;;;;;;;4994381;28;20206;-60
2021/12/25 00:25:47;;;;;;;2.40;0.30;;;;;;;;;;4994413;28;20214;-59
2021/12/25 00:31:05;;;;;;;1.58;0.60;;;;;;;;;;4994643;28;20166;-60
2021/12/25 00:33:48;;;;;;;3.42;0.30;;;;;;;;;;4994496;28;20155;-60
2021/12/25 00:36:20;;;;;;;3.45;0.45;;;;;;;;;;4994562;28;20544;-60
2021/12/25 00:38:46;;;;;;;0.98;0.40;;;;;;;;;;4994503;28;20162;-60
2021/12/25 00:41:13;;;;;;;3.30;0.40;;;;;;;;;;4994634;28;20167;-59
2021/12/25 00:43:39;;;;;;;1.13;0.47;;;;;;;;;;4994292;28;20178;-60
2021/12/25 00:46:05;;;;;;;0.63;0.40;;;;;;;;;;4994206;28;20205;-60
2021/12/25 00:48:31;;;;;;;2.22;0.50;;;;;;;;;;4994407;28;20193;-60
2021/12/25 00:50:57;;;;;;;1.60;0.60;;;;;;;;;;4994542;28;20181;-60
2021/12/25 00:53:23;;;;;;;0.80;0.35;;;;;;;;;;4994252;28;20234;-59
2021/12/25 00:55:49;;;;;;;3.45;0.50;;;;;;;;;;4993980;28;20246;-60
2021/12/25 00:58:15;;;;;;;1.50;0.50;;;;;;;;;;4997385;28;20177;-60
2021/12/25 01:00:41;;;;;;;0.35;0.30;;;;;;;;;;4997806;28;20171;-60
2021/12/25 01:03:07;;;;;;;0.98;0.50;;;;;;;;;;4997738;28;20202;-60
2021/12/25 01:05:33;;;;;;;0.40;0.30;;;;;;;;;;4998086;28;20285;-60
2021/12/25 01:07:59;;;;;;;2.33;0.57;;;;;;;;;;4998101;28;20613;-59
2021/12/25 01:10:25;;;;;;;3.05;0.40;;;;;;;;;;4997957;28;20648;-59
2021/12/25 01:13:59;;;;;;;0.50;0.30;;;;;;;;;;4997702;28;20167;-60
2021/12/25 01:16:22;;;;;;;0.30;0.30;;;;;;;;;;4988625;28;20478;-59
2021/12/25 01:19:28;;;;;;;1.17;0.50;;;;;;;;;;4997993;28;20159;-59
2021/12/25 01:32:32;;;;;;;2.85;0.38;;;;;;;;;;4997599;28;20186;-59
2021/12/25 01:37:43;;;;;;;1.25;0.35;;;;;;;;;;4997226;28;20166;-60
2021/12/25 01:40:46;;;;;;;2.60;0.30;;;;;;;;;;4997600;28;20238;-60
2021/12/25 01:48:45;;;;;;;0.88;0.40;;;;;;;;;;4997613;28;20214;-60
2021/12/25 01:51:11;;;;;;;1.25;0.50;;;;;;;;;;4997490;28;20177;-60
2021/12/25 01:53:37;;;;;;;1.43;0.50;;;;;;;;;;4997137;28;20162;-60
2021/12/25 01:56:04;;;;;;;1.85;0.30;;;;;;;;;;4996970;28;20467;-60
2021/12/25 01:58:30;;;;;;;0.82;0.38;;;;;;;;;;4996770;28;20235;-59
2021/12/25 02:00:57;;;;;;;1.98;0.35;;;;;;;;;;4998558;28;20168;-60
2021/12/25 02:03:24;;;;;;;0.63;0.50;;;;;;;;;;4996752;28;20185;-60
2021/12/25 02:05:50;;;;;;;1.43;0.50;;;;;;;;;;4996824;28;20210;-60
2021/12/25 02:08:17;;;;;;;0.77;0.27;;;;;;;;;;4995781;28;20170;-59
2021/12/25 02:10:43;;;;;;;1.35;0.80;;;;;;;;;;4996702;28;20167;-58
2021/12/25 02:13:11;;;;;;;3.47;0.82;;;;;;;;;;4997036;28;20313;-58
2021/12/25 02:15:40;;;;;;;1.10;0.50;;;;;;;;;;5000980;28;20182;-58
2021/12/25 02:18:23;;;;;;;2.53;0.60;;;;;;;;;;5003028;28;20171;-60
2021/12/25 02:21:01;;;;;;;2.13;0.63;;;;;;;;;;4996815;28;20168;-60
2021/12/25 02:23:28;;;;;;;1.55;0.50;;;;;;;;;;4996795;28;20174;-60
2021/12/25 02:25:55;;;;;;;1.00;0.40;;;;;;;;;;4997032;28;20553;-60
2021/12/25 02:28:22;;;;;;;2.20;0.63;;;;;;;;;;4996202;28;20626;-60
2021/12/25 02:30:49;;;;;;;1.33;0.27;;;;;;;;;;4996287;28;20173;-60
2021/12/25 02:33:16;;;;;;;0.80;0.40;;;;;;;;;;4996175;28;20171;-60
2021/12/25 02:35:42;;;;;;;2.28;0.30;;;;;;;;;;4996637;28;20179;-60
2021/12/25 02:38:08;;;;;;;1.87;0.53;;;;;;;;;;4996277;28;20225;-59
2021/12/25 02:40:34;;;;;;;0.95;0.38;;;;;;;;;;4996280;28;20179;-61
2021/12/25 02:43:00;;;;;;;1.13;0.22;;;;;;;;;;4996205;28;20273;-60
2021/12/25 02:45:26;;;;;;;0.20;0.20;;;;;;;;;;4996201;28;20253;-60
2021/12/25 02:47:53;;;;;;;0.90;0.45;;;;;;;;;;4995981;28;20195;-60
2021/12/25 02:50:26;;;;;;;0.75;0.38;;;;;;;;;;4996317;28;20159;-61
2021/12/25 02:52:52;;;;;;;2.15;0.47;;;;;;;;;;4996148;28;20241;-60
2021/12/25 02:55:18;;;;;;;1.08;0.50;;;;;;;;;;4995887;28;20242;-60
2021/12/25 02:57:49;;;;;;;0.22;0.20;;;;;;;;;;4995770;28;20599;-60
2021/12/25 03:00:17;;;;;;;5.45;0.40;;;;;;;;;;4996219;28;20160;-60
2021/12/25 03:02:43;;;;;;;0.45;0.25;;;;;;;;;;4995773;28;20356;-57
2021/12/25 03:05:09;;;;;;;0.68;0.40;;;;;;;;;;4995638;28;20695;-61
2021/12/25 03:07:35;;;;;;;1.35;0.47;;;;;;;;;;4995682;28;20167;-60
2021/12/25 03:10:01;;;;;;;1.23;0.45;;;;;;;;;;4995718;28;20197;-60
2021/12/25 03:12:35;;;;;;;0.75;0.40;;;;;;;;;;4995578;28;20614;-59
2021/12/25 03:15:14;;;;;;;1.00;0.30;;;;;;;;;;4995575;28;20147;-59
2021/12/25 03:17:40;;;;;;;0.75;0.43;;;;;;;;;;4995678;28;20178;-59
2021/12/25 03:20:07;;;;;;;4.78;0.63;;;;;;;;;;4994659;28;20186;-59
2021/12/25 03:22:33;;;;;;;0.40;0.30;;;;;;;;;;4995750;28;20525;-59
2021/12/25 03:24:59;;;;;;;0.40;0.20;;;;;;;;;;4995233;28;20183;-59
2021/12/25 03:27:25;;;;;;;0.85;0.50;;;;;;;;;;4995231;28;20673;-59
2021/12/25 03:29:51;;;;;;;1.67;0.50;;;;;;;;;;4995017;28;20546;-59
2021/12/25 03:32:17;;;;;;;2.28;0.40;;;;;;;;;;4995461;28;20512;-58
2021/12/25 03:34:43;;;;;;;1.05;0.55;;;;;;;;;;4995351;28;20273;-57
2021/12/25 03:37:09;;;;;;;0.85;0.35;;;;;;;;;;4995886;28;20183;-60
2021/12/25 03:39:35;;;;;;;0.50;0.43;;;;;;;;;;4995246;28;20175;-60
2021/12/25 03:42:01;;;;;;;1.15;0.40;;;;;;;;;;4995156;28;20167;-59
2021/12/25 03:44:29;;;;;;;1.10;0.30;;;;;;;;;;4995268;28;20513;-59
2021/12/25 03:47:00;;;;;;;0.77;0.37;;;;;;;;;;4995471;28;20182;-59
2021/12/25 03:53:06;;;;;;;2.37;0.53;;;;;;;;;;4995364;28;20160;-59
2021/12/25 03:57:51;;;;;;;1.63;0.30;;;;;;;;;;4995054;28;20614;-60
2021/12/25 04:00:26;;;;;;;1.53;0.50;;;;;;;;;;4994622;28;20547;-60
2021/12/25 04:02:59;;;;;;;0.70;0.30;;;;;;;;;;4994912;28;20166;-60
2021/12/25 04:05:29;;;;;;;2.43;0.20;;;;;;;;;;4994869;28;20202;-59
2021/12/25 04:08:02;;;;;;;0.30;0.20;;;;;;;;;;4994894;28;20175;-59
2021/12/25 04:10:32;;;;;;;1.27;0.40;;;;;;;;;;4994577;28;20564;-60
2021/12/25 04:12:58;;;;;;;1.13;0.50;;;;;;;;;;4994515;28;20664;-60
2021/12/25 04:15:24;;;;;;;0.63;0.40;;;;;;;;;;4994744;28;20178;-59
2021/12/25 04:17:50;;;;;;;2.77;0.60;;;;;;;;;;4994781;28;20221;-60
2021/12/25 04:20:17;;;;;;;1.13;0.60;;;;;;;;;;4994396;28;20618;-59
2021/12/25 04:22:48;;;;;;;1.23;0.47;;;;;;;;;;4994916;28;20266;-60
2021/12/25 04:25:21;;;;;;;0.73;0.43;;;;;;;;;;4994445;28;20201;-60
2021/12/25 04:27:47;;;;;;;5.03;0.40;;;;;;;;;;4994690;28;20173;-60
2021/12/25 04:30:25;;;;;;;1.80;0.50;;;;;;;;;;4994236;28;20579;-59
2021/12/25 04:33:27;;;;;;;0.40;0.40;;;;;;;;;;4993869;28;20148;-60
2021/12/25 05:03:12;;;;;;;0.30;0.30;;;;;;;;;;4994469;28;20213;-60
2021/12/25 05:05:39;;;;;;;0.50;0.30;;;;;;;;;;4993972;28;20619;-60
2021/12/25 05:08:07;;;;;;;1.50;0.40;;;;;;;;;;4994465;28;20171;-61
2021/12/25 05:10:33;;;;;;;0.33;0.10;;;;;;;;;;4994510;28;20266;-60
2021/12/25 05:12:59;;;;;;;0.70;0.43;;;;;;;;;;4993882;28;20218;-59
2021/12/25 05:15:25;;;;;;;1.10;0.70;;;;;;;;;;4993804;28;20179;-60
2021/12/25 05:17:51;;;;;;;2.80;0.60;;;;;;;;;;4994154;28;20182;-58
2021/12/25 05:20:18;;;;;;;0.50;0.33;;;;;;;;;;4993837;28;20747;-58
2021/12/25 05:22:44;;;;;;;1.27;0.50;;;;;;;;;;4994074;28;20183;-60
2021/12/25 05:25:11;;;;;;;1.50;0.67;;;;;;;;;;4993566;28;20195;-60
2021/12/25 05:27:37;;;;;;;1.63;0.30;;;;;;;;;;4994347;28;20171;-59
2021/12/25 05:30:04;;;;;;;2.43;0.50;;;;;;;;;;4993891;28;20249;-60
2021/12/25 05:32:29;;;;;;;0.60;0.40;;;;;;;;;;4993859;28;20265;-60
2021/12/25 05:34:55;;;;;;;0.33;0.27;;;;;;;;;;4993842;28;20194;-59
2021/12/25 05:37:21;;;;;;;0.77;0.23;;;;;;;;;;4993778;28;20265;-58
2021/12/25 05:39:51;;;;;;;2.07;0.40;;;;;;;;;;4993723;28;20266;-59
2021/12/25 05:42:20;;;;;;;3.13;0.50;;;;;;;;;;4994007;28;20194;-59
2021/12/25 05:44:46;;;;;;;0.63;0.40;;;;;;;;;;4996226;28;20202;-59
2021/12/25 05:47:12;;;;;;;1.73;0.63;;;;;;;;;;4997322;28;20237;-59
2021/12/25 05:49:38;;;;;;;0.97;0.20;;;;;;;;;;4997095;28;20171;-58
2021/12/25 05:52:04;;;;;;;4.37;0.60;;;;;;;;;;4997600;28;20175;-58
2021/12/25 05:54:30;;;;;;;0.37;0.30;;;;;;;;;;4997083;28;20517;-60
2021/12/25 05:56:56;;;;;;;2.10;0.40;;;;;;;;;;4997305;28;20171;-59
2021/12/25 05:59:22;;;;;;;0.23;0.23;;;;;;;;;;4997428;28;20216;-60
2021/12/25 06:01:48;;;;;;;3.60;0.70;;;;;;;;;;4996934;28;20570;-59
2021/12/25 06:04:14;;;;;;;0.90;0.50;;;;;;;;;;4997264;28;20503;-60
2021/12/25 06:06:40;;;;;;;0.97;0.60;;;;;;;;;;4997181;28;20229;-60
2021/12/25 06:09:09;;;;;;;0.40;0.33;;;;;;;;;;4997004;28;20594;-57
2021/12/25 06:11:39;;;;;;;1.80;0.33;;;;;;;;;;4996856;28;20171;-60
2021/12/25 06:14:18;;;;;;;2.50;0.63;;;;;;;;;;4996621;28;20613;-60
2021/12/25 06:16:44;;;;;;;4.97;0.50;;;;;;;;;;4996560;28;20221;-60
2021/12/25 06:19:10;;;;;;;1.10;0.47;;;;;;;;;;4996650;28;20171;-60
2021/12/25 06:21:36;;;;;;;1.23;0.67;;;;;;;;;;4996440;28;20265;-60
2021/12/25 06:24:03;;;;;;;2.70;0.33;;;;;;;;;;4996440;28;20502;-59
2021/12/25 06:26:29;;;;;;;2.03;0.43;;;;;;;;;;4996702;28;20178;-58
2021/12/25 06:28:55;;;;;;;3.63;0.47;;;;;;;;;;4996301;28;20248;-60
2021/12/25 06:31:22;;;;;;;0.60;0.40;;;;;;;;;;4996328;28;20167;-60
2021/12/25 06:33:48;;;;;;;2.47;0.70;;;;;;;;;;4996377;28;20171;-60
2021/12/25 06:36:14;;;;;;;0.80;0.60;;;;;;;;;;4996675;28;20256;-57
2021/12/25 06:38:41;;;;;;;1.27;0.40;;;;;;;;;;4996629;28;20259;-57
2021/12/25 06:41:07;;;;;;;0.80;0.53;;;;;;;;;;4997207;28;20178;-57
2021/12/25 06:43:33;;;;;;;1.93;0.43;;;;;;;;;;4996920;28;20186;-58
2021/12/25 06:45:59;;;;;;;2.13;0.87;;;;;;;;;;4996348;28;20511;-59
2021/12/25 06:48:26;;;;;;;0.67;0.43;;;;;;;;;;4996027;28;20237;-58
2021/12/25 06:50:52;;;;;;;2.30;0.70;;;;;;;;;;4996318;28;20507;-58
2021/12/25 06:53:18;;;;;;;0.97;0.50;;;;;;;;;;4996025;28;20591;-59
2021/12/25 06:55:44;;;;;;;0.77;0.60;;;;;;;;;;4996023;28;20182;-58
2021/12/25 06:58:10;;;;;;;2.40;0.47;;;;;;;;;;4995916;28;20587;-58
2021/12/25 07:00:35;;;;;;;2.30;0.60;;;;;;;;;;4996030;28;20217;-59
2021/12/25 07:03:01;;;;;;;3.08;0.68;;;;;;;;;;4995879;28;20167;-59
2021/12/25 07:05:27;;;;;;;0.60;0.60;;;;;;;;;;4995642;28;20194;-60
2021/12/25 07:07:53;;;;;;;2.65;0.60;;;;;;;;;;4995658;28;20174;-59
2021/12/25 07:10:20;;;;;;;0.88;0.40;;;;;;;;;;4995424;28;20167;-59
2021/12/25 07:12:48;;;;;;;4.88;0.80;;;;;;;;;;4995634;28;20170;-59
2021/12/25 07:15:14;;;;;;;2.13;0.60;;;;;;;;;;4995829;28;20217;-59
2021/12/25 07:17:40;;;;;;;2.28;0.73;;;;;;;;;;4995704;28;20513;-58
2021/12/25 07:20:06;;;;;;;2.33;0.80;;;;;;;;;;4996318;28;20170;-60
2021/12/25 07:22:32;;;;;;;1.27;0.77;;;;;;;;;;4995440;28;20194;-60
2021/12/25 07:24:58;;;;;;;4.03;1.05;;;;;;;;;;4995442;28;20198;-57
2021/12/25 07:27:24;;;;;;;1.40;0.60;;;;;;;;;;4995699;28;20622;-60
2021/12/25 07:29:50;;;;;;;2.88;0.90;;;;;;;;;;4994565;28;20305;-58
2021/12/25 07:32:16;;;;;;;2.17;0.90;;;;;;;;;;4994573;28;20618;-58
2021/12/25 07:34:45;;;;;;;2.43;1.20;;;;;;;;;;4994525;28;20504;-59
2021/12/25 07:37:13;;;;;;;1.40;0.60;;;;;;;;;;4994909;28;20175;-57
2021/12/25 07:39:39;;;;;;;1.03;0.50;;;;;;;;;;4995802;28;20171;-58
2021/12/25 07:42:05;;;;;;;0.53;0.33;;;;;;;;;;4998332;28;20610;-59
2021/12/25 07:44:31;;;;;;;1.80;0.50;;;;;;;;;;5000480;28;20205;-59
2021/12/25 07:46:57;;;;;;;0.90;0.50;;;;;;;;;;5000797;28;20231;-59
2021/12/25 07:49:23;;;;;;;1.70;0.37;;;;;;;;;;5001438;28;20182;-59
2021/12/25 07:51:49;;;;;;;0.97;0.50;;;;;;;;;;5001049;28;20163;-59
2021/12/25 07:54:15;;;;;;;1.15;0.80;;;;;;;;;;5001696;28;20238;-59
2021/12/25 07:56:41;;;;;;;3.30;0.60;;;;;;;;;;4999294;28;20178;-59
2021/12/25 07:59:07;;;;;;;0.50;0.40;;;;;;;;;;4999291;28;20173;-60
2021/12/25 08:01:34;;;;;;;2.45;0.60;;;;;;;;;;4999775;28;20253;-60
2021/12/25 08:04:00;;;;;;;4.03;0.90;;;;;;;;;;5001682;28;20194;-60
2021/12/25 08:06:26;;;;;;;0.93;0.70;;;;;;;;;;5001206;28;20550;-60
2021/12/25 08:08:55;;;;;;;1.50;0.55;;;;;;;;;;5002614;28;20195;-60
2021/12/25 08:11:22;;;;;;;0.73;0.50;;;;;;;;;;5012101;28;20167;-60
2021/12/25 08:13:48;;;;;;;2.35;0.70;;;;;;;;;;5003241;28;20171;-60
2021/12/25 08:16:14;;;;;;;2.65;0.60;;;;;;;;;;5002977;28;20223;-60
2021/12/25 08:18:40;;;;;;;1.92;0.65;;;;;;;;;;5009236;28;20178;-60
2021/12/25 08:21:06;;;;;;;1.95;0.50;;;;;;;;;;5000679;28;20167;-60
2021/12/25 08:23:32;;;;;;;1.58;0.50;;;;;;;;;;5000443;28;20190;-61
2021/12/25 08:25:59;;;;;;;1.02;0.57;;;;;;;;;;4997221;28;20202;-60
2021/12/25 08:28:26;;;;;;;1.13;0.60;;;;;;;;;;4961274;28;974845;-59
2021/12/25 08:30:52;;;;;;;1.70;0.60;;;;;;;;;;4994670;28;20177;-60
2021/12/25 08:33:18;;;;;;;1.13;0.52;;;;;;;;;;4994449;28;20159;-60
2021/12/25 08:35:44;;;;;;;1.38;0.70;;;;;;;;;;4994609;28;20579;-60
2021/12/25 08:38:14;;;;;;;2.65;0.80;;;;;;;;;;4993925;28;20264;-60
2021/12/25 08:40:40;;;;;;;2.75;1.20;;;;;;;;;;4994525;28;20237;-60
2021/12/25 08:43:06;;;;;;;2.83;0.80;;;;;;;;;;4994285;28;20167;-60
2021/12/25 08:45:41;;;;;;;2.28;0.57;;;;;;;;;;4994282;28;20202;-60
2021/12/25 08:48:10;;;;;;;1.75;0.80;;;;;;;;;;4994053;28;20617;-60
2021/12/25 08:50:36;;;;;;;1.48;0.70;;;;;;;;;;4994091;28;20182;-60
2021/12/25 08:53:02;;;;;;;1.25;0.40;;;;;;;;;;4994195;28;20169;-60
2021/12/25 08:55:28;;;;;;;3.20;0.82;;;;;;;;;;4994100;28;20179;-60
2021/12/25 08:57:54;;;;;;;4.13;0.70;;;;;;;;;;4993963;28;20183;-60
2021/12/25 09:00:20;;;;;;;0.40;0.40;;;;;;;;;;4994013;28;20244;-60
2021/12/25 09:02:47;;;;;;;1.40;0.82;;;;;;;;;;4993837;28;20591;-60
2021/12/25 09:05:12;;;;;;;1.38;0.50;;;;;;;;;;4993584;28;20199;-60
2021/12/25 09:07:38;;;;;;;0.88;0.55;;;;;;;;;;4993594;28;20183;-60
2021/12/25 09:10:05;;;;;;;1.00;0.80;;;;;;;;;;4993673;28;20178;-60
2021/12/25 09:12:33;;;;;;;2.58;1.10;;;;;;;;;;4993694;28;20178;-60
2021/12/25 09:14:59;;;;;;;6.38;1.80;;;;;;;;;;4993819;28;20217;-60
2021/12/25 09:17:25;;;;;;;6.35;2.00;;;;;;;;;;4994031;28;20524;-60
2021/12/25 09:19:51;;;;;;;5.80;1.15;;;;;;;;;;4997924;28;20203;-59
2021/12/25 09:22:17;;;;;;;6.30;2.00;;;;;;;;;;4997462;28;20174;-60
2021/12/25 09:24:43;;;;;;;6.93;1.90;;;;;;;;;;4997488;28;20581;-60
2021/12/25 09:27:09;;;;;;;3.30;1.35;;;;;;;;;;4997259;28;20167;-64
2021/12/25 09:29:35;;;;;;;2.60;1.08;;;;;;;;;;4997252;28;20186;-59
2021/12/25 09:32:01;;;;;;;0.75;0.73;;;;;;;;;;4997233;28;20159;-60
2021/12/25 09:34:27;;;;;;;1.50;0.77;;;;;;;;;;4997287;28;20560;-60
2021/12/25 09:36:53;;;;;;;2.95;1.00;;;;;;;;;;4997163;28;20185;-60
2021/12/25 09:39:19;;;;;;;3.25;0.88;;;;;;;;;;4997183;28;20171;-60
2021/12/25 09:41:45;;;;;;;1.85;0.80;;;;;;;;;;4997003;28;20186;-60
2021/12/25 09:44:11;;;;;;;1.65;0.80;;;;;;;;;;4996886;28;20190;-60
2021/12/25 09:46:37;;;;;;;1.73;1.02;;;;;;;;;;4997148;28;20194;-58
2021/12/25 09:49:04;;;;;;;3.38;1.10;;;;;;;;;;4996901;28;20191;-59
2021/12/25 09:51:30;;;;;;;1.77;0.80;;;;;;;;;;4997035;28;20171;-60
2021/12/25 09:54:07;;;;;;;1.38;0.75;;;;;;;;;;4996815;28;20167;-60
2021/12/25 09:56:35;;;;;;;2.25;0.93;;;;;;;;;;4997020;28;20155;-60
2021/12/25 09:59:01;;;;;;;1.60;0.80;;;;;;;;;;4997115;28;20159;-60
2021/12/25 10:01:41;;;;;;;1.23;0.70;;;;;;;;;;4996767;28;20171;-60
2021/12/25 10:04:07;;;;;;;2.97;1.00;;;;;;;;;;4996608;28;20233;-58
2021/12/25 10:06:37;;;;;;;1.95;1.25;;;;;;;;;;4996762;28;20174;-60
2021/12/25 10:09:11;;;;;;;2.08;1.20;;;;;;;;;;4996948;28;20250;-60
2021/12/25 10:11:37;;;;;;;2.63;1.40;;;;;;;;;;4997056;28;20155;-60
2021/12/25 10:14:03;;;;;;;3.08;1.45;;;;;;;;;;4996549;28;20598;-60
2021/12/25 10:16:31;;;;;;;2.20;1.40;;;;;;;;;;4996697;28;20167;-64
2021/12/25 10:19:32;;;;;;;2.05;1.33;;;;;;;;;;4996641;28;20525;-60
2021/12/25 10:22:06;;;;;;;5.38;1.40;;;;;;;;;;4920805;29;20173;-59
2021/12/25 10:24:37;;;;;;;3.22;1.60;;;;;;;;;;4920796;29;20602;-58
2021/12/25 10:27:12;;;;;;;1.50;1.10;;;;;;;;;;4936694;29;20167;-59
2021/12/25 10:29:38;;;;;;;2.22;1.13;;;;;;;;;;4935885;29;20628;-60
2021/12/25 10:32:13;;;;;;;3.35;0.90;;;;;;;;;;4936789;29;20165;-60
2021/12/25 10:34:39;;;;;;;1.65;1.00;;;;;;;;;;4936544;29;20770;-60
2021/12/25 10:37:09;;;;;;;2.95;0.95;;;;;;;;;;4936784;29;20188;-60
2021/12/25 10:39:35;;;;;;;2.72;1.40;;;;;;;;;;4936568;29;20184;-59
2021/12/25 10:42:16;;;;;;;3.13;0.90;;;;;;;;;;4936458;29;20516;-59
2021/12/25 10:44:47;;;;;;;1.90;0.90;;;;;;;;;;4936282;29;20207;-59
2021/12/25 10:47:18;;;;;;;4.50;1.05;;;;;;;;;;4936525;29;20177;-58
2021/12/25 10:49:51;;;;;;;2.05;1.10;;;;;;;;;;4936604;29;20181;-59
2021/12/25 10:52:23;;;;;;;2.63;1.20;;;;;;;;;;4938361;29;20187;-60
2021/12/25 10:54:51;;;;;;;2.88;1.20;;;;;;;;;;4951702;28;20196;-60
2021/12/25 10:57:31;;;;;;;3.03;1.00;;;;;;;;;;4996178;28;20607;-59
2021/12/25 10:59:57;;;;;;;1.60;1.00;;;;;;;;;;4996378;28;20194;-60
2021/12/25 11:02:34;;;;;;;5.97;1.30;;;;;;;;;;4996176;28;20177;-60
2021/12/25 11:05:00;;;;;;;3.78;1.70;;;;;;;;;;4996015;28;20195;-60
2021/12/25 11:07:27;;;;;;;2.72;1.75;;;;;;;;;;4996224;28;20167;-59
2021/12/25 11:10:10;;;;;;;3.15;1.70;;;;;;;;;;4996164;28;20163;-60
2021/12/25 11:12:36;;;;;;;2.88;1.60;;;;;;;;;;4996200;28;20167;-60
2021/12/25 11:15:19;;;;;;;2.80;1.83;;;;;;;;;;4995966;28;20171;-59
2021/12/25 11:17:50;;;;;;;3.88;1.88;;;;;;;;;;4996172;28;20155;-59
2021/12/25 11:20:22;;;;;;;2.90;1.73;;;;;;;;;;4995888;28;20155;-59
2021/12/25 11:22:50;;;;;;;3.08;1.73;;;;;;;;;;4995761;28;20163;-59
2021/12/25 11:25:17;;;;;;;3.47;2.03;;;;;;;;;;4995285;28;20226;-59
2021/12/25 11:27:43;;;;;;;3.00;1.88;;;;;;;;;;4995133;28;20583;-59
2021/12/25 11:30:09;;;;;;;2.78;1.70;;;;;;;;;;4995494;28;20175;-60
2021/12/25 11:32:35;;;;;;;2.20;1.67;;;;;;;;;;4995301;28;20595;-60
2021/12/25 11:35:01;;;;;;;4.25;1.90;;;;;;;;;;4995328;28;20221;-60
2021/12/25 11:37:27;;;;;;;2.50;2.00;;;;;;;;;;4995027;28;20479;-60
2021/12/25 11:39:54;;;;;;;3.13;1.98;;;;;;;;;;4995509;28;20261;-60
2021/12/25 11:42:22;;;;;;;4.00;1.90;;;;;;;;;;4994236;28;20198;-59
2021/12/25 11:44:52;;;;;;;3.15;1.63;;;;;;;;;;4994754;28;20591;-59
2021/12/25 11:47:37;;;;;;;2.58;1.80;;;;;;;;;;4994867;28;20587;-59
2021/12/25 11:50:08;;;;;;;3.88;2.03;;;;;;;;;;4994840;28;20587;-59
2021/12/25 11:52:44;;;;;;;2.95;2.10;;;;;;;;;;4995157;28;20231;-60
2021/12/25 11:55:28;;;;;;;2.85;2.00;;;;;;;;;;4995149;28;20167;-59
2021/12/25 12:00:44;;;;;;;4.80;1.95;;;;;;;;;;4994852;28;20162;-58
2021/12/25 12:03:10;;;;;;;4.25;2.20;;;;;;;;;;4994787;28;20177;-59
2021/12/25 12:05:37;;;;;;;4.55;1.98;;;;;;;;;;4994685;28;20190;-58
2021/12/25 12:08:15;;;;;;;5.32;2.33;;;;;;;;;;4995015;28;20171;-58
2021/12/25 12:10:47;;;;;;;5.35;2.58;;;;;;;;;;4994467;28;20598;-58
2021/12/25 12:13:22;;;;;;;4.03;2.30;;;;;;;;;;4994708;28;20614;-60
2021/12/25 12:15:53;;;;;;;3.40;2.20;;;;;;;;;;4994445;28;20224;-59
2021/12/25 12:18:30;;;;;;;4.43;2.13;;;;;;;;;;4994434;28;20662;-59
2021/12/25 12:21:00;;;;;;;2.75;2.10;;;;;;;;;;4994670;28;20159;-59
2021/12/25 12:23:40;;;;;;;4.28;2.13;;;;;;;;;;4994612;28;20159;-59
2021/12/25 12:26:12;;;;;;;3.00;1.88;;;;;;;;;;4994326;28;20273;-58
2021/12/25 12:28:52;;;;;;;8.90;2.25;;;;;;;;;;4994320;28;20182;-58
2021/12/25 12:31:37;;;;;;;4.78;2.33;;;;;;;;;;4994471;28;20277;-59
2021/12/25 12:34:23;;;;;;;2.90;1.80;;;;;;;;;;4994355;28;20163;-60
2021/12/25 12:36:49;;;;;;;3.80;2.13;;;;;;;;;;4994081;28;20186;-59
2021/12/25 12:39:18;;;;;;;3.05;1.85;;;;;;;;;;4994064;28;20698;-59
2021/12/25 12:41:52;;;;;;;3.38;1.90;;;;;;;;;;4994307;28;20549;-59
2021/12/25 12:44:26;;;;;;;3.45;1.80;;;;;;;;;;4994240;28;20206;-56
2021/12/25 12:46:53;;;;;;;3.38;1.92;;;;;;;;;;4994575;28;20406;-59
2021/12/25 12:49:23;;;;;;;5.13;1.80;;;;;;;;;;4994517;28;20281;-58
2021/12/25 12:52:08;;;;;;;4.70;1.90;;;;;;;;;;4994208;28;20523;-60
2021/12/25 12:54:41;;;;;;;2.95;2.17;;;;;;;;;;4998088;28;20186;-60
2021/12/25 12:57:07;;;;;;;3.15;1.92;;;;;;;;;;4997857;28;20610;-59
2021/12/25 12:59:41;;;;;;;3.28;1.92;;;;;;;;;;4997899;28;20166;-59
2021/12/25 13:02:07;;;;;;;2.78;1.67;;;;;;;;;;4997897;28;20181;-57
2021/12/25 13:04:47;;;;;;;3.00;1.70;;;;;;;;;;4997907;28;20524;-60
2021/12/25 13:07:15;;;;;;;3.85;1.58;;;;;;;;;;4998128;28;20178;-60
2021/12/25 13:09:45;;;;;;;2.83;1.70;;;;;;;;;;4997833;28;20163;-60
2021/12/25 13:12:26;;;;;;;2.38;1.75;;;;;;;;;;4998399;28;20156;-60
2021/12/25 13:15:00;;;;;;;4.28;1.85;;;;;;;;;;4998108;28;20163;-59
2021/12/25 13:17:25;;;;;;;3.65;1.50;;;;;;;;;;4998005;28;20555;-60
2021/12/25 13:19:52;;;;;;;4.07;1.50;;;;;;;;;;4998125;28;20634;-60
2021/12/25 13:22:18;;;;;;;2.35;1.27;;;;;;;;;;4997892;28;20189;-60
2021/12/25 13:24:44;;;;;;;1.90;1.38;;;;;;;;;;4997478;28;20285;-59
2021/12/25 13:27:17;;;;;;;2.63;1.60;;;;;;;;;;4997712;28;20159;-60
2021/12/25 13:29:43;;;;;;;3.47;1.65;;;;;;;;;;4997781;28;20183;-59
2021/12/25 13:32:08;;;;;;;3.28;1.55;;;;;;;;;;4997981;28;20159;-60
2021/12/25 13:34:37;;;;;;;4.50;1.73;;;;;;;;;;4997587;28;20622;-60
2021/12/25 13:37:06;;;;;;;1.67;1.45;;;;;;;;;;4997866;28;20257;-60
2021/12/25 13:39:34;;;;;;;2.92;1.38;;;;;;;;;;4997198;28;20162;-60
2021/12/25 13:42:08;;;;;;;2.42;1.35;;;;;;;;;;4997842;28;20180;-59
2021/12/25 13:44:35;;;;;;;2.83;1.63;;;;;;;;;;4997113;28;20226;-59
2021/12/25 13:47:03;;;;;;;3.08;1.85;;;;;;;;;;4997605;28;20621;-59
2021/12/25 13:49:37;;;;;;;2.78;1.60;;;;;;;;;;4998027;28;20194;-60
2021/12/25 13:52:10;;;;;;;1.77;1.48;;;;;;;;;;4998132;28;20209;-60
2021/12/25 13:54:43;;;;;;;1.83;1.35;;;;;;;;;;4997364;28;20163;-60
2021/12/25 13:57:10;;;;;;;3.13;1.20;;;;;;;;;;4997431;28;20460;-59
2021/12/25 13:59:36;;;;;;;2.75;1.55;;;;;;;;;;4997375;28;20229;-60
2021/12/25 14:02:07;;;;;;;4.13;1.80;;;;;;;;;;4997067;28;20167;-58
2021/12/25 14:04:34;;;;;;;3.63;1.50;;;;;;;;;;4995960;28;20567;-59
2021/12/25 14:17:22;;;;;;;3.88;1.58;;;;;;;;;;6136934;23;20196;-61
2021/12/25 14:22:28;;;;;;;2.13;1.60;;;;;;;;;;6291693;22;20260;-58
2021/12/25 14:24:54;;;;;;;3.08;1.70;;;;;;;;;;6257619;22;20190;31
2021/12/25 14:32:02;;;;;;;2.30;1.38;;;;;;;;;;6145542;23;20196;31
2021/12/25 14:45:59;;;;;;;3.15;2.10;;;;;;;;;;6142471;23;20216;31
2021/12/25 14:50:32;;;;;;;;;;;;;;;;;;;;;
2021/12/25 14:53:07;;;;;;;4.13;2.10;;;;;;;;;;5533284;22;20597;-59
2021/12/25 14:55:34;;;;;;;3.40;2.03;;;;;;;;;;5070902;28;20160;-59
2021/12/25 14:58:11;;;;;;;3.13;1.80;;;;;;;;;;5070920;28;20176;-59
2021/12/25 15:00:37;;;;;;;2.88;2.20;;;;;;;;;;5070628;28;20182;-59
2021/12/25 15:03:10;;;;;;;4.95;1.88;;;;;;;;;;5070683;28;20172;-60
2021/12/25 15:05:37;;;;;;;6.78;2.33;;;;;;;;;;5070410;28;20659;-59
2021/12/25 15:08:16;;;;;;;4.43;2.10;;;;;;;;;;5070442;28;20180;-60
2021/12/25 15:10:41;;;;;;;4.30;2.08;;;;;;;;;;5070626;28;20171;-58
2021/12/25 15:13:18;;;;;;;2.72;2.20;;;;;;;;;;5070670;28;20164;-60
2021/12/25 15:15:52;;;;;;;4.35;1.70;;;;;;;;;;5070562;28;20162;-60
2021/12/25 15:18:38;;;;;;;3.75;2.03;;;;;;;;;;5070545;28;20235;-57
2021/12/25 15:21:10;;;;;;;2.45;1.80;;;;;;;;;;5070557;28;20153;-59
2021/12/25 15:23:35;;;;;;;3.53;1.90;;;;;;;;;;5070787;28;20176;-60
2021/12/25 15:26:12;;;;;;;4.90;1.98;;;;;;;;;;5070262;28;20175;-59
2021/12/25 15:28:40;;;;;;;3.67;1.65;;;;;;;;;;5070487;28;20225;-59
2021/12/25 15:31:20;;;;;;;3.13;2.25;;;;;;;;;;5070261;28;20211;-60
2021/12/25 15:33:48;;;;;;;3.50;2.00;;;;;;;;;;5070623;28;20246;-60
2021/12/25 15:36:15;;;;;;;3.60;1.80;;;;;;;;;;5070210;28;20171;-60
2021/12/25 15:38:41;;;;;;;5.50;2.45;;;;;;;;;;5069997;28;20196;-59
2021/12/25 15:41:08;;;;;;;4.13;2.42;;;;;;;;;;5069860;28;20548;-61
2021/12/25 15:43:34;;;;;;;4.47;2.70;;;;;;;;;;5070210;28;20272;-61
2021/12/25 15:46:03;;;;;;;5.32;3.00;;;;;;;;;;5070011;28;20195;-60
2021/12/25 15:48:29;;;;;;;6.07;2.85;;;;;;;;;;5070085;28;20193;-59
2021/12/25 15:50:55;;;;;;;4.40;2.92;;;;;;;;;;5069284;28;20210;-59
2021/12/25 15:53:21;;;;;;;3.50;2.63;;;;;;;;;;5069369;28;20279;-59
2021/12/25 15:55:47;;;;;;;4.55;3.03;;;;;;;;;;5069279;28;20227;-59
2021/12/25 15:58:15;;;;;;;6.22;2.83;;;;;;;;;;5069457;28;20180;-60
2021/12/25 16:00:45;;;;;;;4.53;2.60;;;;;;;;;;5062525;28;20169;-60
2021/12/25 16:03:11;;;;;;;3.35;2.33;;;;;;;;;;5056243;28;20224;-59
2021/12/25 16:05:37;;;;;;;3.75;2.28;;;;;;;;;;5056247;28;20180;-58
2021/12/25 16:08:04;;;;;;;5.10;2.80;;;;;;;;;;5056064;28;20611;-57
2021/12/25 16:10:30;;;;;;;2.55;2.03;;;;;;;;;;5056235;28;20161;-59
2021/12/25 16:12:56;;;;;;;4.00;2.35;;;;;;;;;;5055052;28;20596;-59
2021/12/25 16:15:22;;;;;;;4.75;2.78;;;;;;;;;;5056239;28;20173;-59
2021/12/25 16:17:48;;;;;;;4.35;2.63;;;;;;;;;;5056386;28;20215;-58
2021/12/25 16:20:15;;;;;;;6.20;2.42;;;;;;;;;;5056110;28;20255;-59
2021/12/25 16:22:41;;;;;;;5.75;2.90;;;;;;;;;;5056061;28;20184;-57